createdAt,value
2019-06-10T00:00:42.253Z,6.63
2019-06-10T00:03:11.479Z,7.07
2019-06-10T00:05:41.565Z,6.60
2019-06-10T00:08:11.950Z,6.30
2019-06-10T00:10:42.121Z,7.87
2019-06-10T00:13:12.165Z,9.50
2019-06-10T00:15:41.094Z,7.00
2019-06-10T00:18:32.862Z,6.20
2019-06-10T00:20:40.936Z,6.53
2019-06-10T00:23:12.177Z,6.10
2019-06-10T00:25:41.297Z,7.70
2019-06-10T00:28:12.295Z,6.60
2019-06-10T00:30:43.455Z,5.93
2019-06-10T00:33:12.599Z,5.77
2019-06-10T00:35:41.503Z,5.63
2019-06-10T00:38:13.958Z,5.50
2019-06-10T00:40:41.471Z,5.67
2019-06-10T00:43:13.205Z,6.40
2019-06-10T00:45:41.021Z,5.90
2019-06-10T00:48:20.200Z,5.80
2019-06-10T00:50:41.575Z,6.63
2019-06-10T00:53:13.896Z,5.80
2019-06-10T00:55:41.474Z,5.97
2019-06-10T00:58:13.649Z,6.13
2019-06-10T01:00:41.342Z,6.47
2019-06-10T01:03:13.530Z,6.17
2019-06-10T01:05:42.044Z,6.17
2019-06-10T01:08:15.165Z,10.40
2019-06-10T01:10:44.019Z,7.37
2019-06-10T01:13:15.299Z,6.77
2019-06-10T01:15:41.883Z,6.17
2019-06-10T01:18:30.494Z,6.87
2019-06-10T01:20:41.985Z,5.80
2019-06-10T01:23:13.915Z,6.20
2019-06-10T01:25:42.197Z,5.93
2019-06-10T01:28:14.555Z,6.30
2019-06-10T01:30:43.444Z,6.47
2019-06-10T01:33:14.193Z,5.73
2019-06-10T01:35:41.874Z,8.47
2019-06-10T01:38:12.471Z,5.73
2019-06-10T01:40:41.859Z,6.13
2019-06-10T01:43:12.954Z,6.60
2019-06-10T01:45:41.843Z,6.23
2019-06-10T01:48:14.920Z,6.37
2019-06-10T01:50:41.499Z,6.80
2019-06-10T01:53:13.562Z,6.80
2019-06-10T01:55:41.727Z,7.93
2019-06-10T01:58:12.456Z,8.90
2019-06-10T02:00:56.546Z,5.83
2019-06-10T02:03:24.773Z,6.33
2019-06-10T02:05:52.941Z,5.10
2019-06-10T02:08:22.372Z,5.23
2019-06-10T02:10:50.968Z,5.93
2019-06-10T02:13:32.662Z,5.70
2019-06-10T02:16:01.090Z,5.77
2019-06-10T02:18:31.660Z,5.53
2019-06-10T02:21:00.917Z,5.33
2019-06-10T02:23:31.359Z,5.80
2019-06-10T02:26:02.162Z,6.77
2019-06-10T02:28:31.793Z,4.80
2019-06-10T02:31:03.472Z,5.77
2019-06-10T02:33:35.723Z,6.13
2019-06-10T02:36:03.419Z,5.20
2019-06-10T02:38:35.503Z,6.70
2019-06-10T02:41:04.440Z,5.67
2019-06-10T02:43:33.282Z,4.90
2019-06-10T02:46:04.226Z,5.27
2019-06-10T02:48:34.840Z,5.80
2019-06-10T02:51:04.720Z,5.53
2019-06-10T02:53:36.003Z,4.57
2019-06-10T02:56:06.784Z,5.80
2019-06-10T02:58:38.819Z,8.30
2019-06-10T03:01:05.872Z,4.67
2019-06-10T03:03:42.654Z,6.80
2019-06-10T03:06:06.618Z,5.37
2019-06-10T03:08:36.038Z,6.63
2019-06-10T03:11:04.776Z,4.50
2019-06-10T03:13:33.244Z,4.73
2019-06-10T03:16:25.574Z,4.50
2019-06-10T03:18:52.766Z,6.57
2019-06-10T03:21:24.239Z,5.57
2019-06-10T03:23:52.990Z,4.80
2019-06-10T03:26:23.979Z,5.07
2019-06-10T03:28:52.019Z,8.00
2019-06-10T03:31:22.073Z,7.47
2019-06-10T03:33:54.112Z,7.43
2019-06-10T03:36:22.706Z,5.40
2019-06-10T03:38:53.502Z,5.83
2019-06-10T03:41:23.287Z,4.67
2019-06-10T03:43:53.117Z,4.43
2019-06-10T03:46:23.802Z,4.50
2019-06-10T03:48:52.616Z,6.20
2019-06-10T03:51:21.859Z,6.73
2019-06-10T03:53:53.071Z,4.67
2019-06-10T03:56:23.858Z,5.87
2019-06-10T03:58:53.399Z,7.80
2019-06-10T04:01:25.034Z,5.17
2019-06-10T04:03:53.242Z,4.57
2019-06-10T04:06:24.209Z,7.63
2019-06-10T04:08:52.865Z,5.70
2019-06-10T04:11:24.007Z,5.43
2019-06-10T04:13:53.355Z,7.00
2019-06-10T04:16:22.684Z,5.90
2019-06-10T04:18:53.421Z,6.47
2019-06-10T04:21:25.435Z,4.93
2019-06-10T04:23:53.699Z,7.73
2019-06-10T04:26:24.703Z,6.03
2019-06-10T04:28:52.988Z,7.07
2019-06-10T04:31:23.766Z,6.07
2019-06-10T04:33:52.332Z,7.63
2019-06-10T04:36:23.460Z,5.23
2019-06-10T04:38:52.466Z,6.27
2019-06-10T04:41:23.012Z,5.10
2019-06-10T04:43:53.014Z,7.70
2019-06-10T04:46:24.557Z,6.30
2019-06-10T04:48:53.266Z,4.47
2019-06-10T04:51:23.524Z,8.30
2019-06-10T04:53:52.555Z,6.73
2019-06-10T04:56:24.102Z,6.77
2019-06-10T04:58:52.612Z,9.20
2019-06-10T05:01:25.251Z,7.00
2019-06-10T05:03:53.192Z,9.17
2019-06-10T05:06:26.705Z,6.77
2019-06-10T05:08:54.499Z,6.10
2019-06-10T05:11:24.269Z,6.77
2019-06-10T05:13:53.408Z,7.03
2019-06-10T05:16:25.584Z,7.57
2019-06-10T05:18:54.595Z,6.20
2019-06-10T05:21:24.533Z,5.53
2019-06-10T05:23:52.249Z,5.53
2019-06-10T05:26:25.090Z,5.73
2019-06-10T05:28:52.619Z,5.70
2019-06-10T05:31:23.239Z,5.23
2019-06-10T05:33:53.084Z,6.03
2019-06-10T05:36:25.451Z,6.70
2019-06-10T05:38:52.536Z,5.37
2019-06-10T05:41:24.186Z,6.70
2019-06-10T05:43:52.357Z,5.30
2019-06-10T05:46:23.643Z,4.20
2019-06-10T05:48:52.641Z,6.57
2019-06-10T05:51:25.829Z,6.27
2019-06-10T05:53:54.734Z,5.43
2019-06-10T05:56:23.868Z,6.13
2019-06-10T05:58:53.173Z,7.83
2019-06-10T06:01:22.945Z,4.50
2019-06-10T06:03:54.106Z,7.03
2019-06-10T06:06:32.352Z,5.87
2019-06-10T06:09:04.862Z,7.63
2019-06-10T06:11:48.872Z,5.80
2019-06-10T06:14:19.196Z,6.03
2019-06-10T06:16:48.866Z,7.50
2019-06-10T06:19:39.137Z,6.60
2019-06-10T06:22:27.397Z,11.87
2019-06-10T06:24:59.612Z,6.63
2019-06-10T06:27:30.764Z,4.47
2019-06-10T06:30:10.838Z,9.23
2019-06-10T06:32:43.635Z,7.00
2019-06-10T06:35:22.722Z,7.53
2019-06-10T06:37:54.285Z,7.00
2019-06-10T06:40:23.429Z,4.57
2019-06-10T06:42:52.583Z,7.57
2019-06-10T06:45:22.958Z,6.30
2019-06-10T06:47:56.997Z,5.50
2019-06-10T06:50:54.646Z,8.70
2019-06-10T06:53:27.829Z,11.17
2019-06-10T06:55:46.139Z,6.13
2019-06-10T06:58:23.202Z,7.27
2019-06-10T07:01:05.144Z,7.20
2019-06-10T07:03:32.211Z,5.67
2019-06-10T07:06:04.701Z,4.23
2019-06-10T07:08:38.117Z,5.27
2019-06-10T07:11:15.352Z,8.80
2019-06-10T07:14:10.086Z,4.77
2019-06-10T07:17:07.275Z,6.20
2019-06-10T07:19:39.184Z,3.80
2019-06-10T07:22:16.133Z,3.60
2019-06-10T07:24:47.509Z,6.40
2019-06-10T07:27:22.656Z,4.67
2019-06-10T07:30:11.477Z,5.37
2019-06-10T07:32:37.338Z,5.43
2019-06-10T07:35:06.913Z,5.73
2019-06-10T07:37:36.611Z,10.83
2019-06-10T07:40:07.806Z,7.70
2019-06-10T07:42:39.000Z,4.40
2019-06-10T07:45:09.239Z,3.00
2019-06-10T07:47:46.200Z,4.50
2019-06-10T07:50:22.686Z,5.27
2019-06-10T07:52:52.893Z,7.27
2019-06-10T07:55:33.247Z,4.53
2019-06-10T07:58:04.939Z,4.93
2019-06-10T08:00:38.918Z,3.30
2019-06-10T08:03:13.212Z,6.77
2019-06-10T08:05:46.475Z,4.67
2019-06-10T08:08:15.770Z,4.37
2019-06-10T08:10:52.940Z,3.90
2019-06-10T08:13:23.897Z,4.77
2019-06-10T08:15:53.340Z,6.43
2019-06-10T08:18:25.840Z,6.83
2019-06-10T08:20:54.863Z,4.93
2019-06-10T08:23:25.367Z,5.87
2019-06-10T08:25:57.829Z,4.47
2019-06-10T08:28:33.320Z,5.13
2019-06-10T08:31:05.132Z,3.60
2019-06-10T08:33:39.005Z,3.97
2019-06-10T08:36:13.818Z,5.90
2019-06-10T08:38:49.598Z,4.27
2019-06-10T08:41:23.196Z,4.27
2019-06-10T08:43:52.897Z,7.23
2019-06-10T08:46:27.883Z,5.07
2019-06-10T08:48:57.920Z,5.17
2019-06-10T08:51:32.621Z,5.17
2019-06-10T08:54:17.199Z,4.10
2019-06-10T08:56:57.793Z,9.60
2019-06-10T08:59:32.593Z,7.87
2019-06-10T09:02:02.984Z,6.47
2019-06-10T09:04:33.073Z,5.03
2019-06-10T09:07:05.003Z,9.30
2019-06-10T09:09:33.694Z,5.97
2019-06-10T09:12:03.625Z,7.63
2019-06-10T09:14:32.728Z,7.17
2019-06-10T09:17:03.399Z,5.53
2019-06-10T09:19:34.558Z,6.87
2019-06-10T09:22:06.071Z,6.00
2019-06-10T09:24:34.634Z,10.27
2019-06-10T09:27:03.114Z,8.70
2019-06-10T09:29:34.856Z,6.23
2019-06-10T09:32:03.249Z,8.77
2019-06-10T09:34:33.101Z,8.20
2019-06-10T09:37:03.536Z,8.20
2019-06-10T09:39:34.239Z,6.97
2019-06-10T09:42:06.199Z,8.07
2019-06-10T09:44:33.412Z,7.07
2019-06-10T09:47:03.934Z,7.03
2019-06-10T09:49:33.563Z,8.57
2019-06-10T09:52:03.296Z,7.27
2019-06-10T09:54:33.553Z,8.23
2019-06-10T09:57:02.604Z,9.20
2019-06-10T09:59:32.353Z,7.57
2019-06-10T10:02:03.720Z,8.90
2019-06-10T10:04:37.492Z,8.33
2019-06-10T10:07:07.838Z,7.60
2019-06-10T10:09:37.204Z,11.73
2019-06-10T10:12:06.048Z,9.67
2019-06-10T10:14:34.842Z,9.93
2019-06-10T10:17:04.787Z,8.10
2019-06-10T10:19:36.074Z,8.80
2019-06-10T10:22:05.879Z,8.63
2019-06-10T10:24:35.981Z,10.13
2019-06-10T10:27:08.469Z,10.03
2019-06-10T10:29:36.821Z,9.20
2019-06-10T10:32:09.890Z,9.53
2019-06-10T10:34:38.420Z,10.50
2019-06-10T10:37:06.918Z,9.30
2019-06-10T10:39:35.780Z,9.60
2019-06-10T10:42:06.696Z,9.80
2019-06-10T10:44:37.010Z,12.07
2019-06-10T10:47:05.406Z,9.63
2019-06-10T10:49:33.903Z,9.10
2019-06-10T10:52:02.744Z,10.07
2019-06-10T10:54:36.894Z,9.03
2019-06-10T10:57:05.459Z,10.67
2019-06-10T10:59:34.245Z,9.73
2019-06-10T11:02:02.700Z,10.87
2019-06-10T11:04:33.016Z,9.93
2019-06-10T11:07:03.664Z,9.60
2019-06-10T11:09:38.649Z,10.30
2019-06-10T11:12:07.562Z,12.73
2019-06-10T11:14:36.987Z,9.57
2019-06-10T11:17:05.518Z,10.50
2019-06-10T11:19:36.662Z,10.37
2019-06-10T11:22:05.830Z,10.90
2019-06-10T11:24:41.056Z,10.23
2019-06-10T11:27:12.129Z,10.20
2019-06-10T11:29:42.108Z,10.63
2019-06-10T11:32:09.783Z,11.43
2019-06-10T11:34:37.974Z,10.17
2019-06-10T11:37:06.080Z,11.00
2019-06-10T11:39:38.434Z,11.37
2019-06-10T11:42:04.269Z,12.00
2019-06-10T11:44:33.393Z,12.67
2019-06-10T11:47:03.227Z,12.43
2019-06-10T11:49:32.347Z,10.80
2019-06-10T11:52:03.066Z,10.43
2019-06-10T11:54:34.067Z,11.20
2019-06-10T11:57:02.174Z,11.20
2019-06-10T11:59:32.732Z,10.90
2019-06-10T12:02:06.017Z,10.47
2019-06-10T12:04:39.050Z,11.43
2019-06-10T12:07:12.702Z,10.77
2019-06-10T12:09:43.348Z,11.33
2019-06-10T12:12:25.017Z,10.50
2019-06-10T12:14:57.774Z,11.10
2019-06-10T12:17:41.545Z,11.50
2019-06-10T12:20:03.014Z,10.80
2019-06-10T12:22:32.970Z,10.70
2019-06-10T12:25:26.376Z,10.47
2019-06-10T12:27:32.840Z,10.27
2019-06-10T12:30:04.823Z,10.70
2019-06-10T12:32:34.341Z,11.27
2019-06-10T12:35:05.697Z,10.47
2019-06-10T12:37:37.214Z,10.60
2019-06-10T12:40:06.187Z,10.08
2019-06-10T12:42:34.808Z,10.03
2019-06-10T12:45:08.302Z,10.93
2019-06-10T12:47:35.542Z,11.53
2019-06-10T12:50:05.587Z,10.70
2019-06-10T12:52:35.465Z,10.45
2019-06-10T12:55:09.909Z,10.55
2019-06-10T12:57:38.453Z,10.23
2019-06-10T13:00:19.202Z,10.15
2019-06-10T13:02:39.696Z,11.38
2019-06-10T13:05:08.982Z,11.15
2019-06-10T13:07:38.029Z,10.03
2019-06-10T13:10:07.964Z,10.73
2019-06-10T13:12:42.765Z,10.80
2019-06-10T13:15:11.064Z,11.68
2019-06-10T13:17:39.781Z,10.65
2019-06-10T13:20:08.403Z,10.40
2019-06-10T13:22:36.959Z,10.78
2019-06-10T13:25:06.643Z,10.98
2019-06-10T13:27:35.685Z,11.70
2019-06-10T13:30:09.438Z,10.40
2019-06-10T13:32:37.945Z,10.75
2019-06-10T13:35:07.708Z,11.00
2019-06-10T13:37:37.435Z,10.70
2019-06-10T13:40:09.984Z,10.35
2019-06-10T13:42:37.980Z,9.50
2019-06-10T13:45:08.570Z,10.25
2019-06-10T13:47:42.856Z,9.63
2019-06-10T13:50:11.948Z,11.33
2019-06-10T13:52:42.641Z,9.93
2019-06-10T13:55:13.639Z,9.90
2019-06-10T13:57:42.639Z,9.78
2019-06-10T14:00:15.547Z,10.63
2019-06-10T14:02:44.066Z,10.40
2019-06-10T14:05:18.204Z,10.68
2019-06-10T14:07:44.652Z,9.55
2019-06-10T14:10:17.988Z,10.30
2019-06-10T14:12:48.793Z,10.43
2019-06-10T14:15:17.071Z,10.43
2019-06-10T14:17:45.960Z,10.53
2019-06-10T14:20:15.494Z,9.98
2019-06-10T14:22:52.961Z,11.20
2019-06-10T14:25:23.246Z,9.78
2019-06-10T14:27:53.227Z,10.23
2019-06-10T14:30:23.059Z,9.98
2019-06-10T14:32:53.261Z,9.25
2019-06-10T14:35:22.758Z,11.43
2019-06-10T14:37:53.432Z,11.22
2019-06-10T14:40:25.280Z,8.83
2019-06-10T14:42:56.321Z,8.50
2019-06-10T14:45:24.638Z,9.75
2019-06-10T14:47:54.416Z,9.48
2019-06-10T14:50:23.199Z,9.83
2019-06-10T14:52:51.934Z,9.98
2019-06-10T14:55:23.081Z,10.63
2019-06-10T14:57:53.113Z,9.53
2019-06-10T15:00:23.596Z,9.08
2019-06-10T15:02:53.862Z,9.65
2019-06-10T15:05:23.256Z,8.93
2019-06-10T15:07:52.840Z,9.30
2019-06-10T15:10:23.325Z,9.35
2019-06-10T15:12:52.859Z,10.20
2019-06-10T15:15:23.613Z,8.65
2019-06-10T15:17:52.624Z,9.13
2019-06-10T15:20:22.829Z,9.70
2019-06-10T15:22:52.642Z,9.40
2019-06-10T15:25:25.442Z,9.75
2019-06-10T15:27:52.661Z,11.08
2019-06-10T15:30:26.554Z,9.68
2019-06-10T15:32:52.445Z,9.30
2019-06-10T15:35:24.588Z,9.53
2019-06-10T15:37:55.435Z,9.95
2019-06-10T15:40:23.823Z,11.12
2019-06-10T15:42:53.254Z,9.78
2019-06-10T15:45:22.368Z,8.55
2019-06-10T15:47:52.982Z,9.38
2019-06-10T15:50:23.323Z,9.68
2019-06-10T15:52:52.439Z,9.58
2019-06-10T15:55:42.668Z,9.53
2019-06-10T15:57:51.061Z,9.25
2019-06-10T16:00:28.821Z,9.10
2019-06-10T16:02:53.431Z,9.50
2019-06-10T16:05:25.162Z,9.55
2019-06-10T16:07:52.991Z,9.88
2019-06-10T16:10:27.598Z,9.55
2019-06-10T16:12:53.444Z,9.70
2019-06-10T16:15:24.773Z,12.47
2019-06-10T16:17:53.581Z,10.08
2019-06-10T16:20:21.935Z,10.10
2019-06-10T16:22:52.156Z,10.85
2019-06-10T16:25:23.493Z,9.78
2019-06-10T16:27:54.273Z,10.78
2019-06-10T16:30:23.229Z,13.03
2019-06-10T16:32:52.978Z,10.23
2019-06-10T16:35:23.492Z,10.50
2019-06-10T16:37:56.680Z,11.27
2019-06-10T16:40:25.856Z,11.17
2019-06-10T16:42:55.244Z,10.38
2019-06-10T16:45:30.246Z,10.50
2019-06-10T16:47:57.152Z,9.67
2019-06-10T16:50:27.373Z,9.90
2019-06-10T16:52:55.778Z,11.07
2019-06-10T16:55:25.807Z,9.97
2019-06-10T16:57:59.210Z,11.17
2019-06-10T17:00:26.048Z,10.80
2019-06-10T17:02:55.280Z,9.87
2019-06-10T17:05:26.655Z,10.17
2019-06-10T17:07:53.787Z,10.13
2019-06-10T17:10:22.416Z,10.37
2019-06-10T17:13:03.106Z,10.73
2019-06-10T17:15:32.030Z,11.10
2019-06-10T17:18:02.673Z,10.50
2019-06-10T17:20:34.130Z,10.50
2019-06-10T17:23:21.722Z,10.73
2019-06-10T17:25:53.421Z,11.83
2019-06-10T17:28:27.098Z,10.60
2019-06-10T17:30:53.977Z,11.70
2019-06-10T17:33:22.954Z,10.77
2019-06-10T17:35:52.614Z,10.70
2019-06-10T17:38:22.517Z,10.60
2019-06-10T17:40:52.161Z,11.10
2019-06-10T17:43:20.956Z,10.93
2019-06-10T17:45:49.492Z,12.03
2019-06-10T17:48:17.775Z,14.30
2019-06-10T17:50:46.214Z,11.90
2019-06-10T17:53:14.546Z,10.80
2019-06-10T17:55:42.860Z,10.57
2019-06-10T17:58:13.088Z,11.87
2019-06-10T18:00:42.248Z,10.80
2019-06-10T18:03:13.015Z,10.37
2019-06-10T18:05:42.520Z,11.13
2019-06-10T18:08:13.105Z,10.80
2019-06-10T18:10:43.467Z,11.40
2019-06-10T18:13:16.222Z,11.00
2019-06-10T18:15:42.338Z,10.77
2019-06-10T18:18:12.848Z,12.37
2019-06-10T18:20:43.267Z,10.93
2019-06-10T18:23:13.270Z,10.83
2019-06-10T18:25:43.302Z,11.60
2019-06-10T18:28:12.072Z,11.20
2019-06-10T18:30:40.263Z,11.50
2019-06-10T18:33:08.859Z,11.33
2019-06-10T18:35:37.655Z,16.07
2019-06-10T18:38:06.235Z,14.07
2019-06-10T18:40:35.644Z,11.70
2019-06-10T18:43:04.454Z,11.70
2019-06-10T18:45:36.258Z,12.07
2019-06-10T18:48:02.930Z,12.60
2019-06-10T18:50:33.419Z,12.90
2019-06-10T18:53:04.233Z,13.37
2019-06-10T18:55:35.888Z,13.03
2019-06-10T18:58:02.563Z,13.47
2019-06-10T19:00:51.853Z,13.23
2019-06-10T19:03:10.211Z,13.37
2019-06-10T19:05:33.583Z,13.93
2019-06-10T19:08:02.614Z,14.23
2019-06-10T19:10:33.492Z,14.47
2019-06-10T19:13:02.500Z,12.77
2019-06-10T19:15:31.838Z,12.53
2019-06-10T19:18:02.955Z,12.83
2019-06-10T19:20:34.593Z,15.33
2019-06-10T19:23:02.497Z,16.87
2019-06-10T19:26:13.397Z,13.50
2019-06-10T19:29:00.166Z,13.37
2019-06-10T19:31:28.756Z,14.07
2019-06-10T19:33:57.178Z,13.83
2019-06-10T19:36:26.561Z,12.90
2019-06-10T19:38:55.613Z,12.07
2019-06-10T19:41:24.124Z,12.57
2019-06-10T19:43:55.124Z,13.53
2019-06-10T19:46:23.519Z,12.50
2019-06-10T19:48:59.440Z,13.43
2019-06-10T19:51:22.849Z,13.40
2019-06-10T19:53:52.732Z,12.87
2019-06-10T19:56:23.247Z,15.17
2019-06-10T19:58:52.978Z,14.63
2019-06-10T20:01:22.559Z,13.60
2019-06-10T20:03:52.080Z,13.47
2019-06-10T20:06:22.201Z,15.03
2019-06-10T20:08:52.208Z,15.77
2019-06-10T20:11:22.733Z,13.73
2019-06-10T20:13:52.944Z,14.20
2019-06-10T20:16:20.480Z,13.20
2019-06-10T20:18:49.837Z,14.63
2019-06-10T20:21:18.038Z,14.03
2019-06-10T20:23:47.736Z,13.00
2019-06-10T20:26:16.271Z,13.30
2019-06-10T20:28:46.402Z,14.40
2019-06-10T20:31:14.473Z,16.83
2019-06-10T20:33:43.228Z,14.53
2019-06-10T20:36:21.074Z,15.13
2019-06-10T20:38:46.398Z,13.43
2019-06-10T20:41:13.664Z,14.50
2019-06-10T20:43:44.281Z,15.30
2019-06-10T20:46:12.973Z,13.60
2019-06-10T20:48:45.368Z,13.60
2019-06-10T20:51:12.871Z,13.60
2019-06-10T20:53:43.223Z,13.57
2019-06-10T20:56:12.444Z,14.97
2019-06-10T20:58:41.410Z,13.60
2019-06-10T21:01:10.759Z,13.83
2019-06-10T21:03:39.130Z,14.30
2019-06-10T21:06:09.566Z,14.90
2019-06-10T21:08:37.907Z,14.67
2019-06-10T21:11:06.732Z,14.63
2019-06-10T21:13:35.999Z,15.33
2019-06-10T21:16:04.591Z,15.47
2019-06-10T21:18:33.188Z,15.03
2019-06-10T21:21:03.010Z,16.20
2019-06-10T21:23:31.584Z,15.00
2019-06-10T21:26:03.187Z,16.40
2019-06-10T21:28:33.322Z,15.07
2019-06-10T21:31:02.812Z,15.87
2019-06-10T21:33:33.290Z,15.03
2019-06-10T21:36:03.922Z,14.43
2019-06-10T21:38:32.330Z,14.63
2019-06-10T21:41:03.041Z,15.87
2019-06-10T21:43:33.088Z,15.50
2019-06-10T21:46:03.329Z,15.33
2019-06-10T21:48:32.381Z,15.60
2019-06-10T21:51:00.824Z,15.33
2019-06-10T21:53:29.600Z,14.93
2019-06-10T21:55:58.098Z,14.70
2019-06-10T21:58:26.437Z,14.70
2019-06-10T22:01:08.526Z,14.43
2019-06-10T22:03:25.820Z,15.53
2019-06-10T22:05:54.412Z,15.13
2019-06-10T22:08:22.788Z,15.83
2019-06-10T22:10:54.391Z,15.20
2019-06-10T22:13:22.370Z,16.33
2019-06-10T22:15:56.701Z,15.17
2019-06-10T22:18:24.874Z,16.00
2019-06-10T22:20:57.527Z,15.73
2019-06-10T22:23:24.394Z,15.53
2019-06-10T22:25:54.264Z,15.73
2019-06-10T22:28:22.507Z,15.87
2019-06-10T22:30:55.683Z,16.73
2019-06-10T22:33:22.668Z,16.10
2019-06-10T22:35:53.895Z,16.27
2019-06-10T22:38:22.163Z,15.97
2019-06-10T22:40:51.492Z,16.27
2019-06-10T22:43:20.664Z,15.67
2019-06-10T22:45:49.495Z,15.97
2019-06-10T22:48:17.932Z,16.90
2019-06-10T22:50:46.957Z,16.80
2019-06-10T22:53:15.517Z,16.93
2019-06-10T22:55:43.918Z,16.33
2019-06-10T22:58:14.447Z,16.37
2019-06-10T23:00:43.756Z,17.93
2019-06-10T23:03:13.030Z,16.17
2019-06-10T23:05:43.315Z,17.23
2019-06-10T23:08:12.642Z,15.80
2019-06-10T23:10:42.827Z,16.50
2019-06-10T23:13:13.280Z,17.10
2019-06-10T23:15:43.144Z,16.33
2019-06-10T23:18:13.389Z,16.70
2019-06-10T23:20:42.822Z,17.47
2019-06-10T23:23:12.707Z,18.30
2019-06-10T23:25:42.965Z,18.17
2019-06-10T23:28:12.932Z,17.13
2019-06-10T23:30:44.267Z,17.80
2019-06-10T23:33:12.730Z,17.67
2019-06-10T23:35:42.970Z,17.77
2019-06-10T23:38:13.223Z,17.63
2019-06-10T23:40:43.000Z,18.13
2019-06-10T23:43:13.184Z,17.63
2019-06-10T23:45:42.332Z,17.83
2019-06-10T23:48:13.194Z,19.00
2019-06-10T23:50:43.497Z,18.23
2019-06-10T23:53:13.073Z,18.03
2019-06-10T23:55:42.787Z,18.40
2019-06-10T23:58:12.907Z,17.70
